createdAt,value
2023-02-08T00:05:12.212Z,1038.5
2023-02-08T00:10:51.013Z,1038.3
2023-02-08T00:16:26.300Z,1038.4
2023-02-08T00:21:56.147Z,1038.3
2023-02-08T00:27:20.655Z,1038.3
2023-02-08T00:32:54.136Z,1038.3
2023-02-08T00:38:32.892Z,1038.2
2023-02-08T00:44:00.423Z,1038.3
2023-02-08T00:49:35.862Z,1038.3
2023-02-08T00:55:04.708Z,1038.4
2023-02-08T01:00:47.980Z,1038.3
2023-02-08T01:06:30.099Z,1038.4
2023-02-08T01:11:59.831Z,1038.3
2023-02-08T01:17:17.258Z,1038.3
2023-02-08T01:23:07.267Z,1038.3
2023-02-08T01:28:37.383Z,1038.3
2023-02-08T01:34:24.127Z,1038.3
2023-02-08T01:39:53.112Z,1038.2
2023-02-08T01:45:26.192Z,1038
2023-02-08T01:50:39.455Z,1038
2023-02-08T01:56:25.545Z,1037.9
2023-02-08T02:02:02.790Z,1037.8
2023-02-08T02:07:18.358Z,1037.8
2023-02-08T02:13:14.196Z,1037.8
2023-02-08T02:18:46.182Z,1037.7
2023-02-08T02:24:01.873Z,1037.6
2023-02-08T02:29:41.815Z,1037.6
2023-02-08T02:35:24.429Z,1037.6
2023-02-08T02:40:49.837Z,1037.6
2023-02-08T02:46:27.159Z,1037.6
2023-02-08T02:52:10.379Z,1037.6
2023-02-08T02:57:40.766Z,1037.6
2023-02-08T03:03:20.794Z,1037.7
2023-02-08T03:08:45.370Z,1037.7
2023-02-08T03:14:12.147Z,1037.6
2023-02-08T03:19:54.025Z,1037.7
2023-02-08T03:25:14.254Z,1037.6
2023-02-08T03:31:02.623Z,1037.6
2023-02-08T03:36:27.901Z,1037.6
2023-02-08T03:41:52.702Z,1037.8
2023-02-08T03:47:34.247Z,1037.7
2023-02-08T03:53:08.483Z,1037.8
2023-02-08T03:58:38.330Z,1037.8
2023-02-08T04:04:22.387Z,1037.8
2023-02-08T04:09:55.997Z,1037.9
2023-02-08T04:15:13.988Z,1037.8
2023-02-08T04:21:03.827Z,1037.8
2023-02-08T04:26:42.873Z,1037.9
2023-02-08T04:31:49.799Z,1037.8
2023-02-08T04:37:42.961Z,1037.9
2023-02-08T04:42:59.647Z,1037.8
2023-02-08T04:48:42.051Z,1037.9
2023-02-08T04:54:22.298Z,1037.9
2023-02-08T04:59:59.469Z,1037.8
2023-02-08T05:05:16.378Z,1037.8
2023-02-08T05:10:51.620Z,1037.8
2023-02-08T05:16:29.549Z,1037.8
2023-02-08T05:22:02.675Z,1037.7
2023-02-08T05:27:46.719Z,1037.8
2023-02-08T05:33:05.472Z,1037.8
2023-02-08T05:38:49.007Z,1037.9
2023-02-08T05:44:28.796Z,1037.9
2023-02-08T05:49:59.179Z,1037.9
2023-02-08T05:55:14.543Z,1037.9
2023-02-08T06:00:46.951Z,1037.9
2023-02-08T06:06:27.967Z,1037.9
2023-02-08T06:12:05.519Z,1038
2023-02-08T06:17:25.477Z,1038
2023-02-08T06:23:09.532Z,1038
2023-02-08T06:28:42.323Z,1038
2023-02-08T06:34:14.146Z,1038
2023-02-08T06:39:55.302Z,1038
2023-02-08T06:45:25.924Z,1038
2023-02-08T06:51:07.247Z,1038.1
2023-02-08T06:56:25.719Z,1038.1
2023-02-08T07:02:18.271Z,1038
2023-02-08T07:07:40.212Z,1038
2023-02-08T07:13:25.290Z,1038.1
2023-02-08T07:18:44.925Z,1038.1
2023-02-08T07:24:07.396Z,1038.2
2023-02-08T07:29:50.460Z,1038.2
2023-02-08T07:35:32.929Z,1038.1
2023-02-08T07:40:57.933Z,1038.2
2023-02-08T07:46:31.836Z,1038.2
2023-02-08T07:51:59.730Z,1038.2
2023-02-08T07:57:41.508Z,1038.2
2023-02-08T08:03:23.040Z,1038.3
2023-02-08T08:08:33.708Z,1038.3
2023-02-08T08:14:18.765Z,1038.3
2023-02-08T08:19:54.516Z,1038.5
2023-02-08T08:25:17.102Z,1038.5
2023-02-08T08:30:55.785Z,1038.5
2023-02-08T08:36:25.627Z,1038.5
2023-02-08T08:42:20.443Z,1038.5
2023-02-08T08:47:49.772Z,1038.5
2023-02-08T08:53:07.065Z,1038.5
2023-02-08T08:58:40.865Z,1038.5
2023-02-08T09:04:30.478Z,1038.5
2023-02-08T09:09:58.402Z,1038.4
2023-02-08T09:15:38.035Z,1038.4
2023-02-08T09:21:08.094Z,1038.4
2023-02-08T09:26:42.547Z,1038.5
2023-02-08T09:32:16.044Z,1038.4
2023-02-08T09:37:38.079Z,1038.5
2023-02-08T09:43:09.207Z,1038.5
2023-02-08T09:48:53.533Z,1038.5
2023-02-08T09:54:16.841Z,1038.4
2023-02-08T09:59:46.965Z,1038.5
2023-02-08T10:05:35.612Z,1038.5
2023-02-08T10:11:08.882Z,1038.6
2023-02-08T10:16:35.890Z,1038.4
2023-02-08T10:22:11.920Z,1038.4
2023-02-08T10:27:35.026Z,1038.4
2023-02-08T10:33:15.677Z,1038.3
2023-02-08T10:38:46.587Z,1038.2
2023-02-08T10:44:12.662Z,1038.2
2023-02-08T10:49:38.009Z,1038.2
2023-02-08T10:55:10.613Z,1038.1
2023-02-08T11:00:48.931Z,1038.1
2023-02-08T11:06:25.434Z,1037.9
2023-02-08T11:12:04.373Z,1037.9
2023-02-08T11:17:38.037Z,1037.9
2023-02-08T11:23:10.897Z,1038
2023-02-08T11:28:45.520Z,1037.9
2023-02-08T11:34:06.338Z,1037.9
2023-02-08T11:39:52.729Z,1038
2023-02-08T11:45:20.428Z,1038
2023-02-08T11:51:02.579Z,1037.9
2023-02-08T11:56:29.816Z,1037.8
2023-02-08T12:02:05.955Z,1037.8
2023-02-08T12:07:32.498Z,1037.8
2023-02-08T12:12:51.249Z,1037.5
2023-02-08T12:18:38.184Z,1037.6
2023-02-08T12:24:21.919Z,1037.5
2023-02-08T12:29:51.250Z,1037.5
2023-02-08T12:35:15.400Z,1037.6
2023-02-08T12:40:57.009Z,1037.5
2023-02-08T12:46:23.721Z,1037.4
2023-02-08T12:51:42.082Z,1037.3
2023-02-08T12:57:40.702Z,1037.3
2023-02-08T13:03:08.945Z,1037.2
2023-02-08T13:08:23.219Z,1037.2
2023-02-08T13:13:57.390Z,1037
2023-02-08T13:19:59.944Z,1037.1
2023-02-08T13:25:26.607Z,1036.9
2023-02-08T13:30:38.842Z,1036.9
2023-02-08T13:36:19.320Z,1036.9
2023-02-08T13:41:47.644Z,1036.8
2023-02-08T13:47:20.934Z,1036.7
2023-02-08T13:52:48.785Z,1036.9
2023-02-08T13:58:46.230Z,1036.8
2023-02-08T14:04:19.778Z,1036.8
2023-02-08T14:09:26.691Z,1036.6
2023-02-08T14:15:07.512Z,1036.5
2023-02-08T14:20:39.844Z,1036.5
2023-02-08T14:26:23.584Z,1036.6
2023-02-08T14:31:43.768Z,1036.6
2023-02-08T14:37:24.583Z,1036.7
2023-02-08T14:43:08.049Z,1036.6
2023-02-08T14:48:32.326Z,1036.5
2023-02-08T14:53:53.749Z,1036.5
2023-02-08T14:59:47.742Z,1036.6
2023-02-08T15:05:20.300Z,1036.5
2023-02-08T15:10:47.844Z,1036.5
2023-02-08T15:16:28.799Z,1036.5
2023-02-08T15:21:40.076Z,1036.6
2023-02-08T15:27:31.014Z,1036.7
2023-02-08T15:32:49.018Z,1036.8
2023-02-08T15:38:34.598Z,1036.9
2023-02-08T15:43:59.316Z,1036.9
2023-02-08T15:49:47.935Z,1036.9
2023-02-08T15:55:11.989Z,1036.8
2023-02-08T16:00:33.463Z,1036.7
2023-02-08T16:06:03.556Z,1036.7
2023-02-08T16:11:52.388Z,1036.8
2023-02-08T16:17:10.328Z,1036.8
2023-02-08T16:22:59.344Z,1036.8
2023-02-08T16:28:27.995Z,1036.9
2023-02-08T16:33:46.780Z,1036.9
2023-02-08T16:39:22.565Z,1037.1
2023-02-08T16:45:13.447Z,1037.1
2023-02-08T16:50:34.782Z,1037.3
2023-02-08T16:55:57.520Z,1037.2
2023-02-08T17:01:33.970Z,1037.3
2023-02-08T17:07:13.268Z,1037.4
2023-02-08T17:12:44.334Z,1037.4
2023-02-08T17:18:34.947Z,1037.5
2023-02-08T17:23:48.907Z,1037.5
2023-02-08T17:29:17.960Z,1037.5
2023-02-08T17:35:05.592Z,1037.5
2023-02-08T17:40:43.603Z,1037.5
2023-02-08T17:46:09.879Z,1037.6
2023-02-08T17:51:34.033Z,1037.6
2023-02-08T17:57:08.521Z,1037.6
2023-02-08T18:02:50.644Z,1037.5
2023-02-08T18:08:10.928Z,1037.6
2023-02-08T18:13:39.032Z,1037.6
2023-02-08T18:19:05.604Z,1037.6
2023-02-08T18:25:03.344Z,1037.7
2023-02-08T18:30:25.387Z,1037.8
2023-02-08T18:35:44.833Z,1037.8
2023-02-08T18:41:34.885Z,1037.8
2023-02-08T18:47:08.350Z,1037.9
2023-02-08T18:52:23.123Z,1038
2023-02-08T18:58:12.286Z,1038.1
2023-02-08T19:03:44.244Z,1037.9
2023-02-08T19:09:21.408Z,1037.9
2023-02-08T19:14:53.138Z,1037.9
2023-02-08T19:20:12.357Z,1037.8
2023-02-08T19:25:42.183Z,1037.7
2023-02-08T19:31:23.121Z,1037.7
2023-02-08T19:36:56.348Z,1037.7
2023-02-08T19:42:17.435Z,1037.7
2023-02-08T19:47:51.628Z,1037.8
2023-02-08T19:53:16.130Z,1037.7
2023-02-08T19:59:06.162Z,1037.8
2023-02-08T20:04:21.521Z,1037.7
2023-02-08T20:10:04.072Z,1037.8
2023-02-08T20:15:30.238Z,1037.7
2023-02-08T20:21:04.170Z,1037.8
2023-02-08T20:26:38.805Z,1037.9
2023-02-08T20:32:11.720Z,1037.8
2023-02-08T20:37:59.258Z,1038
2023-02-08T20:43:26.492Z,1037.6
2023-02-08T20:48:55.334Z,1037.8
2023-02-08T20:54:28.134Z,1037.6
2023-02-08T21:00:06.247Z,1037.7
2023-02-08T21:05:16.303Z,1037.7
2023-02-08T21:10:59.457Z,1037.8
2023-02-08T21:16:24.316Z,1037.8
2023-02-08T21:21:57.717Z,1037.8
2023-02-08T21:27:52.528Z,1038
2023-02-08T21:33:06.723Z,1038.1
2023-02-08T21:38:41.387Z,1038.2
2023-02-08T21:44:06.962Z,1038.2
2023-02-08T21:50:00.198Z,1038.4
2023-02-08T21:55:22.273Z,1038.3
2023-02-08T22:00:47.352Z,1038.2
2023-02-08T22:06:30.183Z,1038.2
2023-02-08T22:12:06.399Z,1038.2
2023-02-08T22:17:38.598Z,1038.2
2023-02-08T22:23:08.540Z,1038.2
2023-02-08T22:28:47.410Z,1038.3
2023-02-08T22:34:19.165Z,1038.3
2023-02-08T22:39:38.899Z,1038.3
2023-02-08T22:45:09.198Z,1038.2
2023-02-08T22:50:34.666Z,1038.2
2023-02-08T22:56:15.749Z,1038.2
2023-02-08T23:01:55.123Z,1038.2
2023-02-08T23:07:31.014Z,1038.2
2023-02-08T23:12:45.274Z,1038.3
2023-02-08T23:18:36.370Z,1038.2
2023-02-08T23:24:03.380Z,1038.2
2023-02-08T23:29:33.097Z,1038.2
2023-02-08T23:35:05.322Z,1038.3
2023-02-08T23:40:20.821Z,1038.4
2023-02-08T23:46:12.124Z,1038.4
2023-02-08T23:51:38.657Z,1038.5
2023-02-08T23:57:11.824Z,1038.4
